sensor_id;sensor_type;location;lat;lon;timestamp;P1;durP1;ratioP1;P2;durP2;ratioP2
61483;SDS011;47349;55.640;37.692;2023-12-07T00:01:13;51.15;;;24.70;;
61483;SDS011;47349;55.640;37.692;2023-12-07T00:03:40;53.92;;;26.20;;
61483;SDS011;47349;55.640;37.692;2023-12-07T00:06:08;53.85;;;25.75;;
61483;SDS011;47349;55.640;37.692;2023-12-07T00:08:36;53.45;;;24.98;;
61483;SDS011;47349;55.640;37.692;2023-12-07T00:11:03;51.47;;;24.85;;
61483;SDS011;47349;55.640;37.692;2023-12-07T00:13:30;58.75;;;26.35;;
61483;SDS011;47349;55.640;37.692;2023-12-07T00:15:58;55.35;;;26.70;;
61483;SDS011;47349;55.640;37.692;2023-12-07T00:18:25;51.28;;;23.10;;
61483;SDS011;47349;55.640;37.692;2023-12-07T00:20:53;58.08;;;25.60;;
61483;SDS011;47349;55.640;37.692;2023-12-07T00:23:20;51.38;;;26.42;;
61483;SDS011;47349;55.640;37.692;2023-12-07T00:25:49;58.22;;;25.20;;
61483;SDS011;47349;55.640;37.692;2023-12-07T00:28:18;49.15;;;24.42;;
61483;SDS011;47349;55.640;37.692;2023-12-07T00:30:45;49.92;;;24.63;;
61483;SDS011;47349;55.640;37.692;2023-12-07T00:33:13;50.13;;;24.60;;
61483;SDS011;47349;55.640;37.692;2023-12-07T00:35:40;53.90;;;26.15;;
61483;SDS011;47349;55.640;37.692;2023-12-07T00:38:08;51.55;;;26.50;;
61483;SDS011;47349;55.640;37.692;2023-12-07T00:40:36;52.72;;;25.15;;
61483;SDS011;47349;55.640;37.692;2023-12-07T00:43:06;55.83;;;26.63;;
61483;SDS011;47349;55.640;37.692;2023-12-07T00:45:36;54.95;;;27.27;;
61483;SDS011;47349;55.640;37.692;2023-12-07T00:48:04;59.63;;;25.55;;
61483;SDS011;47349;55.640;37.692;2023-12-07T00:50:32;51.20;;;24.77;;
61483;SDS011;47349;55.640;37.692;2023-12-07T00:52:59;48.60;;;23.92;;
61483;SDS011;47349;55.640;37.692;2023-12-07T00:55:27;55.15;;;27.30;;
61483;SDS011;47349;55.640;37.692;2023-12-07T00:57:56;49.55;;;25.17;;
61483;SDS011;47349;55.640;37.692;2023-12-07T01:00:24;54.13;;;25.27;;
61483;SDS011;47349;55.640;37.692;2023-12-07T01:02:51;50.85;;;25.77;;
61483;SDS011;47349;55.640;37.692;2023-12-07T01:05:19;53.33;;;25.00;;
61483;SDS011;47349;55.640;37.692;2023-12-07T01:07:47;50.80;;;25.23;;
61483;SDS011;47349;55.640;37.692;2023-12-07T01:10:15;59.63;;;28.45;;
61483;SDS011;47349;55.640;37.692;2023-12-07T01:12:43;55.50;;;26.75;;
61483;SDS011;47349;55.640;37.692;2023-12-07T01:15:13;63.22;;;27.88;;
61483;SDS011;47349;55.640;37.692;2023-12-07T01:17:40;62.58;;;26.23;;
61483;SDS011;47349;55.640;37.692;2023-12-07T01:20:08;57.40;;;27.23;;
61483;SDS011;47349;55.640;37.692;2023-12-07T01:22:40;50.22;;;24.70;;
61483;SDS011;47349;55.640;37.692;2023-12-07T01:25:14;58.65;;;26.98;;
61483;SDS011;47349;55.640;37.692;2023-12-07T01:27:47;56.17;;;28.05;;
61483;SDS011;47349;55.640;37.692;2023-12-07T01:30:15;56.72;;;27.52;;
61483;SDS011;47349;55.640;37.692;2023-12-07T01:32:43;55.25;;;27.65;;
61483;SDS011;47349;55.640;37.692;2023-12-07T01:35:11;62.03;;;25.98;;
61483;SDS011;47349;55.640;37.692;2023-12-07T01:37:39;60.63;;;25.35;;
61483;SDS011;47349;55.640;37.692;2023-12-07T01:40:07;62.88;;;26.65;;
61483;SDS011;47349;55.640;37.692;2023-12-07T01:42:50;57.08;;;27.77;;
61483;SDS011;47349;55.640;37.692;2023-12-07T01:45:24;53.90;;;25.95;;
61483;SDS011;47349;55.640;37.692;2023-12-07T01:47:52;52.67;;;26.73;;
61483;SDS011;47349;55.640;37.692;2023-12-07T01:50:22;54.05;;;26.13;;
61483;SDS011;47349;55.640;37.692;2023-12-07T01:52:54;45.45;;;23.70;;
61483;SDS011;47349;55.640;37.692;2023-12-07T01:55:32;58.72;;;27.48;;
61483;SDS011;47349;55.640;37.692;2023-12-07T01:58:01;59.80;;;27.80;;
61483;SDS011;47349;55.640;37.692;2023-12-07T02:00:29;58.20;;;27.50;;
61483;SDS011;47349;55.640;37.692;2023-12-07T02:02:57;55.03;;;26.08;;
61483;SDS011;47349;55.640;37.692;2023-12-07T02:05:25;46.05;;;24.25;;
61483;SDS011;47349;55.640;37.692;2023-12-07T02:07:52;56.50;;;26.65;;
61483;SDS011;47349;55.640;37.692;2023-12-07T02:10:21;52.05;;;26.95;;
61483;SDS011;47349;55.640;37.692;2023-12-07T02:12:48;52.13;;;26.65;;
61483;SDS011;47349;55.640;37.692;2023-12-07T02:15:19;56.00;;;27.15;;
61483;SDS011;47349;55.640;37.692;2023-12-07T02:20:53;48.35;;;25.77;;
61483;SDS011;47349;55.640;37.692;2023-12-07T02:23:30;51.75;;;25.52;;
61483;SDS011;47349;55.640;37.692;2023-12-07T02:26:15;59.58;;;26.55;;
61483;SDS011;47349;55.640;37.692;2023-12-07T02:28:46;47.10;;;24.48;;
61483;SDS011;47349;55.640;37.692;2023-12-07T02:31:14;55.17;;;25.58;;
61483;SDS011;47349;55.640;37.692;2023-12-07T02:33:41;50.35;;;25.13;;
61483;SDS011;47349;55.640;37.692;2023-12-07T02:36:09;55.72;;;24.08;;
61483;SDS011;47349;55.640;37.692;2023-12-07T02:38:40;47.20;;;24.02;;
61483;SDS011;47349;55.640;37.692;2023-12-07T02:41:08;59.13;;;24.77;;
61483;SDS011;47349;55.640;37.692;2023-12-07T02:43:38;51.17;;;26.05;;
61483;SDS011;47349;55.640;37.692;2023-12-07T02:46:06;50.45;;;24.33;;
61483;SDS011;47349;55.640;37.692;2023-12-07T02:48:33;48.55;;;24.55;;
61483;SDS011;47349;55.640;37.692;2023-12-07T02:51:01;51.60;;;24.58;;
61483;SDS011;47349;55.640;37.692;2023-12-07T02:53:29;52.13;;;24.45;;
61483;SDS011;47349;55.640;37.692;2023-12-07T02:55:56;44.60;;;22.17;;
61483;SDS011;47349;55.640;37.692;2023-12-07T02:58:23;45.55;;;21.80;;
61483;SDS011;47349;55.640;37.692;2023-12-07T03:00:51;48.65;;;22.38;;
61483;SDS011;47349;55.640;37.692;2023-12-07T03:03:18;43.78;;;22.30;;
61483;SDS011;47349;55.640;37.692;2023-12-07T03:05:46;34.80;;;19.30;;
61483;SDS011;47349;55.640;37.692;2023-12-07T03:08:14;37.05;;;18.73;;
61483;SDS011;47349;55.640;37.692;2023-12-07T03:10:41;42.45;;;21.20;;
61483;SDS011;47349;55.640;37.692;2023-12-07T03:13:09;42.30;;;20.75;;
61483;SDS011;47349;55.640;37.692;2023-12-07T03:15:36;39.92;;;20.38;;
61483;SDS011;47349;55.640;37.692;2023-12-07T03:18:04;37.22;;;20.10;;
61483;SDS011;47349;55.640;37.692;2023-12-07T03:20:34;38.15;;;19.98;;
61483;SDS011;47349;55.640;37.692;2023-12-07T03:23:01;38.45;;;19.02;;
61483;SDS011;47349;55.640;37.692;2023-12-07T03:25:31;39.00;;;18.60;;
61483;SDS011;47349;55.640;37.692;2023-12-07T03:28:01;42.17;;;20.48;;
61483;SDS011;47349;55.640;37.692;2023-12-07T03:30:31;40.25;;;19.90;;
61483;SDS011;47349;55.640;37.692;2023-12-07T03:33:00;40.78;;;18.67;;
61483;SDS011;47349;55.640;37.692;2023-12-07T03:35:29;29.98;;;15.55;;
61483;SDS011;47349;55.640;37.692;2023-12-07T03:37:56;41.45;;;19.38;;
61483;SDS011;47349;55.640;37.692;2023-12-07T03:40:26;37.08;;;19.20;;
61483;SDS011;47349;55.640;37.692;2023-12-07T03:42:58;34.53;;;17.10;;
61483;SDS011;47349;55.640;37.692;2023-12-07T03:45:31;34.08;;;16.98;;
61483;SDS011;47349;55.640;37.692;2023-12-07T03:47:59;38.95;;;20.05;;
61483;SDS011;47349;55.640;37.692;2023-12-07T03:50:27;31.45;;;14.55;;
61483;SDS011;47349;55.640;37.692;2023-12-07T03:52:54;40.42;;;19.25;;
61483;SDS011;47349;55.640;37.692;2023-12-07T03:55:21;32.40;;;17.63;;
61483;SDS011;47349;55.640;37.692;2023-12-07T03:57:49;39.28;;;17.83;;
61483;SDS011;47349;55.640;37.692;2023-12-07T04:00:17;34.22;;;17.92;;
61483;SDS011;47349;55.640;37.692;2023-12-07T04:02:45;41.92;;;20.13;;
61483;SDS011;47349;55.640;37.692;2023-12-07T04:05:13;40.13;;;19.63;;
61483;SDS011;47349;55.640;37.692;2023-12-07T04:07:41;45.47;;;18.45;;
61483;SDS011;47349;55.640;37.692;2023-12-07T04:10:10;37.38;;;17.85;;
61483;SDS011;47349;55.640;37.692;2023-12-07T04:12:37;39.35;;;19.33;;
61483;SDS011;47349;55.640;37.692;2023-12-07T04:15:05;43.00;;;20.08;;
61483;SDS011;47349;55.640;37.692;2023-12-07T04:17:33;35.83;;;19.60;;
61483;SDS011;47349;55.640;37.692;2023-12-07T04:20:05;35.63;;;19.30;;
61483;SDS011;47349;55.640;37.692;2023-12-07T04:22:33;31.15;;;16.13;;
61483;SDS011;47349;55.640;37.692;2023-12-07T04:25:00;33.22;;;16.27;;
61483;SDS011;47349;55.640;37.692;2023-12-07T04:27:28;43.63;;;19.42;;
61483;SDS011;47349;55.640;37.692;2023-12-07T04:29:58;39.70;;;18.52;;
61483;SDS011;47349;55.640;37.692;2023-12-07T04:32:25;26.48;;;14.80;;
61483;SDS011;47349;55.640;37.692;2023-12-07T04:34:55;36.92;;;17.75;;
61483;SDS011;47349;55.640;37.692;2023-12-07T04:37:23;34.40;;;18.20;;
61483;SDS011;47349;55.640;37.692;2023-12-07T04:39:51;29.83;;;16.38;;
61483;SDS011;47349;55.640;37.692;2023-12-07T04:42:18;59.15;;;26.65;;
61483;SDS011;47349;55.640;37.692;2023-12-07T04:44:45;29.23;;;15.57;;
61483;SDS011;47349;55.640;37.692;2023-12-07T04:47:13;27.75;;;14.77;;
61483;SDS011;47349;55.640;37.692;2023-12-07T04:49:46;34.38;;;16.80;;
61483;SDS011;47349;55.640;37.692;2023-12-07T04:52:14;38.10;;;18.10;;
61483;SDS011;47349;55.640;37.692;2023-12-07T04:57:37;37.90;;;18.95;;
61483;SDS011;47349;55.640;37.692;2023-12-07T05:00:04;38.80;;;17.65;;
61483;SDS011;47349;55.640;37.692;2023-12-07T05:02:41;47.20;;;20.83;;
61483;SDS011;47349;55.640;37.692;2023-12-07T05:05:08;38.05;;;19.23;;
61483;SDS011;47349;55.640;37.692;2023-12-07T05:07:38;34.38;;;17.40;;
61483;SDS011;47349;55.640;37.692;2023-12-07T05:10:05;33.22;;;16.95;;
61483;SDS011;47349;55.640;37.692;2023-12-07T05:12:35;39.33;;;18.73;;
61483;SDS011;47349;55.640;37.692;2023-12-07T05:15:03;38.28;;;20.25;;
61483;SDS011;47349;55.640;37.692;2023-12-07T05:17:31;40.58;;;19.13;;
61483;SDS011;47349;55.640;37.692;2023-12-07T05:19:59;36.17;;;19.55;;
61483;SDS011;47349;55.640;37.692;2023-12-07T05:22:31;36.13;;;16.65;;
61483;SDS011;47349;55.640;37.692;2023-12-07T05:24:59;34.45;;;17.65;;
61483;SDS011;47349;55.640;37.692;2023-12-07T05:27:26;36.03;;;18.17;;
61483;SDS011;47349;55.640;37.692;2023-12-07T05:29:56;36.65;;;18.38;;
61483;SDS011;47349;55.640;37.692;2023-12-07T05:32:24;41.15;;;20.15;;
61483;SDS011;47349;55.640;37.692;2023-12-07T05:34:53;40.33;;;20.88;;
61483;SDS011;47349;55.640;37.692;2023-12-07T05:37:21;30.92;;;14.88;;
61483;SDS011;47349;55.640;37.692;2023-12-07T05:39:57;37.15;;;19.58;;
61483;SDS011;47349;55.640;37.692;2023-12-07T05:42:29;30.05;;;16.08;;
61483;SDS011;47349;55.640;37.692;2023-12-07T05:44:57;38.83;;;17.35;;
61483;SDS011;47349;55.640;37.692;2023-12-07T05:47:26;47.28;;;19.13;;
61483;SDS011;47349;55.640;37.692;2023-12-07T05:49:53;40.25;;;21.13;;
61483;SDS011;47349;55.640;37.692;2023-12-07T05:52:21;47.22;;;22.85;;
61483;SDS011;47349;55.640;37.692;2023-12-07T05:54:49;38.25;;;20.17;;
61483;SDS011;47349;55.640;37.692;2023-12-07T05:57:16;38.35;;;20.20;;
61483;SDS011;47349;55.640;37.692;2023-12-07T05:59:44;46.80;;;20.90;;
61483;SDS011;47349;55.640;37.692;2023-12-07T06:02:11;38.83;;;19.60;;
61483;SDS011;47349;55.640;37.692;2023-12-07T06:04:39;43.33;;;21.17;;
61483;SDS011;47349;55.640;37.692;2023-12-07T06:07:07;49.20;;;20.25;;
61483;SDS011;47349;55.640;37.692;2023-12-07T06:09:35;46.92;;;20.98;;
61483;SDS011;47349;55.640;37.692;2023-12-07T06:12:02;41.47;;;19.23;;
61483;SDS011;47349;55.640;37.692;2023-12-07T06:14:31;46.65;;;20.05;;
61483;SDS011;47349;55.640;37.692;2023-12-07T06:16:59;48.35;;;21.30;;
61483;SDS011;47349;55.640;37.692;2023-12-07T06:19:26;40.72;;;19.10;;
61483;SDS011;47349;55.640;37.692;2023-12-07T06:21:55;47.67;;;22.67;;
61483;SDS011;47349;55.640;37.692;2023-12-07T06:24:25;44.78;;;19.55;;
61483;SDS011;47349;55.640;37.692;2023-12-07T06:26:55;44.38;;;20.15;;
61483;SDS011;47349;55.640;37.692;2023-12-07T06:29:22;45.58;;;20.55;;
61483;SDS011;47349;55.640;37.692;2023-12-07T06:31:55;49.90;;;20.98;;
61483;SDS011;47349;55.640;37.692;2023-12-07T06:34:23;43.42;;;19.73;;
61483;SDS011;47349;55.640;37.692;2023-12-07T06:36:51;43.10;;;20.67;;
61483;SDS011;47349;55.640;37.692;2023-12-07T06:39:19;43.83;;;20.13;;
61483;SDS011;47349;55.640;37.692;2023-12-07T06:41:46;43.95;;;20.52;;
61483;SDS011;47349;55.640;37.692;2023-12-07T06:44:14;44.30;;;21.70;;
61483;SDS011;47349;55.640;37.692;2023-12-07T06:46:42;45.20;;;22.70;;
61483;SDS011;47349;55.640;37.692;2023-12-07T06:49:15;44.60;;;23.10;;
61483;SDS011;47349;55.640;37.692;2023-12-07T06:51:42;43.10;;;20.13;;
61483;SDS011;47349;55.640;37.692;2023-12-07T06:54:10;43.95;;;21.73;;
61483;SDS011;47349;55.640;37.692;2023-12-07T06:56:37;45.95;;;20.58;;
61483;SDS011;47349;55.640;37.692;2023-12-07T06:59:05;40.17;;;20.20;;
61483;SDS011;47349;55.640;37.692;2023-12-07T07:01:32;46.90;;;24.00;;
61483;SDS011;47349;55.640;37.692;2023-12-07T07:04:00;57.17;;;24.25;;
61483;SDS011;47349;55.640;37.692;2023-12-07T07:06:27;41.33;;;19.70;;
61483;SDS011;47349;55.640;37.692;2023-12-07T07:08:55;39.60;;;19.30;;
61483;SDS011;47349;55.640;37.692;2023-12-07T07:11:26;44.90;;;24.45;;
61483;SDS011;47349;55.640;37.692;2023-12-07T07:13:53;43.05;;;22.17;;
61483;SDS011;47349;55.640;37.692;2023-12-07T07:16:21;44.60;;;22.80;;
61483;SDS011;47349;55.640;37.692;2023-12-07T07:18:49;35.28;;;20.48;;
61483;SDS011;47349;55.640;37.692;2023-12-07T07:21:17;49.03;;;22.23;;
61483;SDS011;47349;55.640;37.692;2023-12-07T07:23:46;53.60;;;22.38;;
61483;SDS011;47349;55.640;37.692;2023-12-07T07:26:14;50.70;;;22.45;;
61483;SDS011;47349;55.640;37.692;2023-12-07T07:28:43;49.95;;;22.45;;
61483;SDS011;47349;55.640;37.692;2023-12-07T07:31:11;47.00;;;22.95;;
61483;SDS011;47349;55.640;37.692;2023-12-07T07:33:39;44.95;;;22.83;;
61483;SDS011;47349;55.640;37.692;2023-12-07T07:36:07;43.50;;;21.25;;
61483;SDS011;47349;55.640;37.692;2023-12-07T07:38:34;48.85;;;22.50;;
61483;SDS011;47349;55.640;37.692;2023-12-07T07:41:02;41.67;;;22.40;;
61483;SDS011;47349;55.640;37.692;2023-12-07T07:43:30;41.40;;;22.25;;
61483;SDS011;47349;55.640;37.692;2023-12-07T07:45:58;47.05;;;24.15;;
61483;SDS011;47349;55.640;37.692;2023-12-07T07:48:26;47.75;;;24.38;;
61483;SDS011;47349;55.640;37.692;2023-12-07T07:50:53;52.05;;;21.95;;
61483;SDS011;47349;55.640;37.692;2023-12-07T07:53:22;41.67;;;20.63;;
61483;SDS011;47349;55.640;37.692;2023-12-07T07:55:53;45.22;;;21.48;;
61483;SDS011;47349;55.640;37.692;2023-12-07T07:58:21;47.80;;;21.60;;
61483;SDS011;47349;55.640;37.692;2023-12-07T08:00:54;40.03;;;20.67;;
61483;SDS011;47349;55.640;37.692;2023-12-07T08:03:21;47.83;;;21.42;;
61483;SDS011;47349;55.640;37.692;2023-12-07T08:05:48;48.20;;;24.73;;
61483;SDS011;47349;55.640;37.692;2023-12-07T08:08:16;39.95;;;21.85;;
61483;SDS011;47349;55.640;37.692;2023-12-07T08:10:43;45.15;;;21.92;;
61483;SDS011;47349;55.640;37.692;2023-12-07T08:13:22;44.28;;;21.75;;
61483;SDS011;47349;55.640;37.692;2023-12-07T08:15:49;50.83;;;21.48;;
61483;SDS011;47349;55.640;37.692;2023-12-07T08:18:19;31.23;;;16.90;;
61483;SDS011;47349;55.640;37.692;2023-12-07T08:20:47;36.78;;;17.45;;
61483;SDS011;47349;55.640;37.692;2023-12-07T08:23:15;36.97;;;19.35;;
61483;SDS011;47349;55.640;37.692;2023-12-07T08:25:42;38.40;;;20.60;;
61483;SDS011;47349;55.640;37.692;2023-12-07T08:28:10;38.72;;;18.08;;
61483;SDS011;47349;55.640;37.692;2023-12-07T08:30:38;30.88;;;16.95;;
61483;SDS011;47349;55.640;37.692;2023-12-07T08:33:06;40.50;;;19.80;;
61483;SDS011;47349;55.640;37.692;2023-12-07T08:35:34;31.15;;;16.70;;
61483;SDS011;47349;55.640;37.692;2023-12-07T08:38:01;36.70;;;17.80;;
61483;SDS011;47349;55.640;37.692;2023-12-07T08:40:32;35.33;;;17.23;;
61483;SDS011;47349;55.640;37.692;2023-12-07T08:43:00;39.95;;;20.23;;
61483;SDS011;47349;55.640;37.692;2023-12-07T08:45:27;40.65;;;19.95;;
61483;SDS011;47349;55.640;37.692;2023-12-07T08:47:56;40.03;;;19.25;;
61483;SDS011;47349;55.640;37.692;2023-12-07T08:50:23;43.05;;;21.95;;
61483;SDS011;47349;55.640;37.692;2023-12-07T08:52:50;43.70;;;20.83;;
61483;SDS011;47349;55.640;37.692;2023-12-07T08:55:27;38.13;;;20.75;;
61483;SDS011;47349;55.640;37.692;2023-12-07T08:57:57;40.10;;;19.83;;
61483;SDS011;47349;55.640;37.692;2023-12-07T09:00:27;39.65;;;22.10;;
61483;SDS011;47349;55.640;37.692;2023-12-07T09:02:55;39.35;;;19.85;;
61483;SDS011;47349;55.640;37.692;2023-12-07T09:05:23;37.78;;;18.73;;
61483;SDS011;47349;55.640;37.692;2023-12-07T09:07:50;44.85;;;20.45;;
61483;SDS011;47349;55.640;37.692;2023-12-07T09:10:25;34.38;;;17.65;;
61483;SDS011;47349;55.640;37.692;2023-12-07T09:12:56;35.50;;;19.05;;
61483;SDS011;47349;55.640;37.692;2023-12-07T09:15:26;36.10;;;17.60;;
61483;SDS011;47349;55.640;37.692;2023-12-07T09:17:54;37.30;;;18.58;;
61483;SDS011;47349;55.640;37.692;2023-12-07T09:20:22;39.95;;;19.95;;
61483;SDS011;47349;55.640;37.692;2023-12-07T09:22:49;37.65;;;20.20;;
61483;SDS011;47349;55.640;37.692;2023-12-07T09:25:17;31.63;;;15.70;;
61483;SDS011;47349;55.640;37.692;2023-12-07T09:27:45;35.03;;;18.30;;
61483;SDS011;47349;55.640;37.692;2023-12-07T09:30:15;35.40;;;18.63;;
61483;SDS011;47349;55.640;37.692;2023-12-07T09:32:43;36.72;;;17.25;;
61483;SDS011;47349;55.640;37.692;2023-12-07T09:35:12;34.42;;;18.02;;
61483;SDS011;47349;55.640;37.692;2023-12-07T09:37:42;36.25;;;18.63;;
61483;SDS011;47349;55.640;37.692;2023-12-07T09:40:17;33.42;;;19.30;;
61483;SDS011;47349;55.640;37.692;2023-12-07T09:42:48;36.08;;;19.30;;
61483;SDS011;47349;55.640;37.692;2023-12-07T09:45:17;33.83;;;18.90;;
61483;SDS011;47349;55.640;37.692;2023-12-07T09:47:51;35.90;;;17.75;;
61483;SDS011;47349;55.640;37.692;2023-12-07T09:50:20;30.20;;;16.75;;
61483;SDS011;47349;55.640;37.692;2023-12-07T09:52:52;30.30;;;16.95;;
61483;SDS011;47349;55.640;37.692;2023-12-07T09:55:35;30.25;;;16.27;;
61483;SDS011;47349;55.640;37.692;2023-12-07T09:58:08;32.10;;;18.58;;
61483;SDS011;47349;55.640;37.692;2023-12-07T10:01:00;26.05;;;16.17;;
61483;SDS011;47349;55.640;37.692;2023-12-07T10:03:29;30.30;;;17.33;;
61483;SDS011;47349;55.640;37.692;2023-12-07T10:06:00;29.58;;;16.77;;
61483;SDS011;47349;55.640;37.692;2023-12-07T10:08:31;29.25;;;16.63;;
61483;SDS011;47349;55.640;37.692;2023-12-07T10:11:07;31.08;;;16.75;;
61483;SDS011;47349;55.640;37.692;2023-12-07T10:13:40;33.58;;;17.58;;
61483;SDS011;47349;55.640;37.692;2023-12-07T10:16:13;26.98;;;16.02;;
61483;SDS011;47349;55.640;37.692;2023-12-07T10:18:44;31.63;;;17.23;;
61483;SDS011;47349;55.640;37.692;2023-12-07T10:21:13;35.75;;;18.00;;
61483;SDS011;47349;55.640;37.692;2023-12-07T10:23:42;39.05;;;18.13;;
61483;SDS011;47349;55.640;37.692;2023-12-07T10:26:16;39.97;;;19.25;;
61483;SDS011;47349;55.640;37.692;2023-12-07T10:28:48;38.58;;;20.58;;
61483;SDS011;47349;55.640;37.692;2023-12-07T10:31:34;34.00;;;17.80;;
61483;SDS011;47349;55.640;37.692;2023-12-07T10:34:02;39.58;;;19.63;;
61483;SDS011;47349;55.640;37.692;2023-12-07T10:36:31;34.40;;;18.35;;
61483;SDS011;47349;55.640;37.692;2023-12-07T10:39:00;37.10;;;19.38;;
61483;SDS011;47349;55.640;37.692;2023-12-07T10:41:47;37.75;;;19.00;;
61483;SDS011;47349;55.640;37.692;2023-12-07T10:44:17;36.80;;;19.10;;
61483;SDS011;47349;55.640;37.692;2023-12-07T10:46:46;27.85;;;15.27;;
61483;SDS011;47349;55.640;37.692;2023-12-07T10:49:17;27.45;;;16.80;;
61483;SDS011;47349;55.640;37.692;2023-12-07T10:52:01;31.33;;;17.50;;
61483;SDS011;47349;55.640;37.692;2023-12-07T10:54:50;26.58;;;15.98;;
61483;SDS011;47349;55.640;37.692;2023-12-07T10:57:32;27.20;;;14.95;;
61483;SDS011;47349;55.640;37.692;2023-12-07T11:00:01;28.48;;;15.45;;
61483;SDS011;47349;55.640;37.692;2023-12-07T11:02:32;25.50;;;15.05;;
61483;SDS011;47349;55.640;37.692;2023-12-07T11:05:01;31.75;;;17.23;;
61483;SDS011;47349;55.640;37.692;2023-12-07T12:08:58;38.80;;;19.52;;
61483;SDS011;47349;55.640;37.692;2023-12-07T12:11:25;34.97;;;18.40;;
61483;SDS011;47349;55.640;37.692;2023-12-07T12:13:53;38.53;;;18.65;;
61483;SDS011;47349;55.640;37.692;2023-12-07T12:16:22;37.67;;;19.13;;
61483;SDS011;47349;55.640;37.692;2023-12-07T12:18:50;35.50;;;18.65;;
61483;SDS011;47349;55.640;37.692;2023-12-07T12:21:18;33.90;;;19.70;;
61483;SDS011;47349;55.640;37.692;2023-12-07T12:23:47;32.83;;;19.67;;
61483;SDS011;47349;55.640;37.692;2023-12-07T12:26:15;39.53;;;21.20;;
61483;SDS011;47349;55.640;37.692;2023-12-07T12:29:03;38.17;;;19.90;;
61483;SDS011;47349;55.640;37.692;2023-12-07T12:31:35;41.03;;;20.98;;
61483;SDS011;47349;55.640;37.692;2023-12-07T12:34:06;40.83;;;20.10;;
61483;SDS011;47349;55.640;37.692;2023-12-07T12:36:40;40.20;;;20.90;;
61483;SDS011;47349;55.640;37.692;2023-12-07T12:39:07;43.80;;;20.95;;
61483;SDS011;47349;55.640;37.692;2023-12-07T12:41:53;36.70;;;19.08;;
61483;SDS011;47349;55.640;37.692;2023-12-07T12:44:23;35.58;;;18.80;;
61483;SDS011;47349;55.640;37.692;2023-12-07T12:47:01;39.08;;;20.60;;
61483;SDS011;47349;55.640;37.692;2023-12-07T12:49:36;38.63;;;20.88;;
61483;SDS011;47349;55.640;37.692;2023-12-07T12:52:04;41.72;;;20.52;;
61483;SDS011;47349;55.640;37.692;2023-12-07T12:54:36;34.88;;;19.95;;
61483;SDS011;47349;55.640;37.692;2023-12-07T12:57:06;39.95;;;19.05;;
61483;SDS011;47349;55.640;37.692;2023-12-07T12:59:37;35.90;;;18.50;;
61483;SDS011;47349;55.640;37.692;2023-12-07T13:02:05;40.05;;;20.20;;
61483;SDS011;47349;55.640;37.692;2023-12-07T13:04:33;36.75;;;19.42;;
61483;SDS011;47349;55.640;37.692;2023-12-07T13:07:04;36.72;;;19.13;;
61483;SDS011;47349;55.640;37.692;2023-12-07T13:09:34;33.50;;;17.27;;
61483;SDS011;47349;55.640;37.692;2023-12-07T13:12:02;38.38;;;18.13;;
61483;SDS011;47349;55.640;37.692;2023-12-07T13:14:32;34.42;;;17.50;;
61483;SDS011;47349;55.640;37.692;2023-12-07T13:17:08;31.88;;;17.48;;
61483;SDS011;47349;55.640;37.692;2023-12-07T13:19:36;37.45;;;18.40;;
61483;SDS011;47349;55.640;37.692;2023-12-07T13:22:03;31.98;;;17.33;;
61483;SDS011;47349;55.640;37.692;2023-12-07T13:24:32;30.60;;;16.70;;
61483;SDS011;47349;55.640;37.692;2023-12-07T13:26:59;31.88;;;16.48;;
61483;SDS011;47349;55.640;37.692;2023-12-07T13:29:27;34.83;;;17.63;;
61483;SDS011;47349;55.640;37.692;2023-12-07T13:32:05;36.15;;;17.80;;
61483;SDS011;47349;55.640;37.692;2023-12-07T13:34:33;32.78;;;17.38;;
61483;SDS011;47349;55.640;37.692;2023-12-07T13:37:01;33.58;;;15.73;;
61483;SDS011;47349;55.640;37.692;2023-12-07T13:39:29;29.27;;;16.63;;
61483;SDS011;47349;55.640;37.692;2023-12-07T13:41:58;34.08;;;18.17;;
61483;SDS011;47349;55.640;37.692;2023-12-07T13:44:31;35.05;;;16.83;;
61483;SDS011;47349;55.640;37.692;2023-12-07T13:47:00;30.17;;;16.90;;
61483;SDS011;47349;55.640;37.692;2023-12-07T13:49:28;31.60;;;15.55;;
61483;SDS011;47349;55.640;37.692;2023-12-07T13:52:03;32.17;;;16.23;;
61483;SDS011;47349;55.640;37.692;2023-12-07T13:54:35;33.67;;;17.55;;
61483;SDS011;47349;55.640;37.692;2023-12-07T13:57:06;33.90;;;18.20;;
61483;SDS011;47349;55.640;37.692;2023-12-07T13:59:35;34.85;;;16.35;;
61483;SDS011;47349;55.640;37.692;2023-12-07T14:02:04;30.33;;;16.17;;
61483;SDS011;47349;55.640;37.692;2023-12-07T14:04:34;31.33;;;16.60;;
61483;SDS011;47349;55.640;37.692;2023-12-07T14:07:11;32.10;;;18.35;;
61483;SDS011;47349;55.640;37.692;2023-12-07T14:09:41;34.22;;;16.95;;
61483;SDS011;47349;55.640;37.692;2023-12-07T14:12:24;29.75;;;15.57;;
61483;SDS011;47349;55.640;37.692;2023-12-07T14:14:53;28.48;;;15.50;;
61483;SDS011;47349;55.640;37.692;2023-12-07T14:17:27;28.63;;;14.57;;
61483;SDS011;47349;55.640;37.692;2023-12-07T14:20:25;29.20;;;15.05;;
61483;SDS011;47349;55.640;37.692;2023-12-07T14:23:19;30.13;;;15.93;;
61483;SDS011;47349;55.640;37.692;2023-12-07T14:25:47;30.80;;;16.88;;
61483;SDS011;47349;55.640;37.692;2023-12-07T14:28:16;28.27;;;16.60;;
61483;SDS011;47349;55.640;37.692;2023-12-07T14:30:44;27.98;;;15.82;;
61483;SDS011;47349;55.640;37.692;2023-12-07T14:33:11;37.03;;;16.70;;
61483;SDS011;47349;55.640;37.692;2023-12-07T14:35:39;26.45;;;15.52;;
61483;SDS011;47349;55.640;37.692;2023-12-07T14:38:07;21.67;;;13.27;;
61483;SDS011;47349;55.640;37.692;2023-12-07T14:40:42;28.90;;;16.20;;
61483;SDS011;47349;55.640;37.692;2023-12-07T14:43:16;27.00;;;15.15;;
61483;SDS011;47349;55.640;37.692;2023-12-07T14:45:47;28.10;;;15.65;;
61483;SDS011;47349;55.640;37.692;2023-12-07T14:48:14;29.88;;;17.00;;
61483;SDS011;47349;55.640;37.692;2023-12-07T14:50:43;26.77;;;14.75;;
61483;SDS011;47349;55.640;37.692;2023-12-07T14:53:10;26.05;;;14.32;;
61483;SDS011;47349;55.640;37.692;2023-12-07T14:55:38;30.20;;;14.82;;
61483;SDS011;47349;55.640;37.692;2023-12-07T14:58:05;23.08;;;13.82;;
61483;SDS011;47349;55.640;37.692;2023-12-07T15:00:35;27.80;;;14.00;;
61483;SDS011;47349;55.640;37.692;2023-12-07T15:03:08;21.73;;;12.25;;
61483;SDS011;47349;55.640;37.692;2023-12-07T15:05:35;22.90;;;13.02;;
61483;SDS011;47349;55.640;37.692;2023-12-07T15:08:04;22.60;;;12.70;;
61483;SDS011;47349;55.640;37.692;2023-12-07T15:10:31;19.50;;;12.25;;
61483;SDS011;47349;55.640;37.692;2023-12-07T15:12:59;21.05;;;13.10;;
61483;SDS011;47349;55.640;37.692;2023-12-07T15:15:26;18.52;;;12.15;;
61483;SDS011;47349;55.640;37.692;2023-12-07T15:17:53;20.63;;;12.50;;
61483;SDS011;47349;55.640;37.692;2023-12-07T15:20:24;27.27;;;13.93;;
61483;SDS011;47349;55.640;37.692;2023-12-07T15:22:53;24.63;;;12.95;;
61483;SDS011;47349;55.640;37.692;2023-12-07T15:25:20;21.67;;;11.52;;
61483;SDS011;47349;55.640;37.692;2023-12-07T15:27:49;15.38;;;8.90;;
61483;SDS011;47349;55.640;37.692;2023-12-07T15:30:17;21.98;;;11.52;;